sensor_id;sensor_type;location;lat;lon;timestamp;P1;durP1;ratioP1;P2;durP2;ratioP2
18146;SDS011;9199;48.832;9.182;2024-01-25T00:02:14;20.57;;;2.40;;
18146;SDS011;9199;48.832;9.182;2024-01-25T00:04:41;18.02;;;2.40;;
18146;SDS011;9199;48.832;9.182;2024-01-25T00:07:09;20.27;;;2.35;;
18146;SDS011;9199;48.832;9.182;2024-01-25T00:09:35;22.17;;;3.00;;
18146;SDS011;9199;48.832;9.182;2024-01-25T00:12:02;19.45;;;2.58;;
18146;SDS011;9199;48.832;9.182;2024-01-25T00:14:30;15.90;;;2.10;;
18146;SDS011;9199;48.832;9.182;2024-01-25T00:16:56;16.77;;;2.25;;
18146;SDS011;9199;48.832;9.182;2024-01-25T00:19:23;19.25;;;2.47;;
18146;SDS011;9199;48.832;9.182;2024-01-25T00:21:50;21.35;;;2.58;;
18146;SDS011;9199;48.832;9.182;2024-01-25T00:24:18;14.48;;;2.13;;
18146;SDS011;9199;48.832;9.182;2024-01-25T00:26:44;17.17;;;2.77;;
18146;SDS011;9199;48.832;9.182;2024-01-25T00:29:11;19.60;;;2.38;;
18146;SDS011;9199;48.832;9.182;2024-01-25T00:31:38;16.75;;;2.10;;
18146;SDS011;9199;48.832;9.182;2024-01-25T00:34:05;16.63;;;2.35;;
18146;SDS011;9199;48.832;9.182;2024-01-25T00:36:32;17.20;;;2.67;;
18146;SDS011;9199;48.832;9.182;2024-01-25T00:38:59;19.70;;;2.60;;
18146;SDS011;9199;48.832;9.182;2024-01-25T00:41:27;23.27;;;2.60;;
18146;SDS011;9199;48.832;9.182;2024-01-25T00:43:58;18.23;;;2.25;;
18146;SDS011;9199;48.832;9.182;2024-01-25T00:46:25;24.05;;;2.45;;
18146;SDS011;9199;48.832;9.182;2024-01-25T00:48:52;18.65;;;2.20;;
18146;SDS011;9199;48.832;9.182;2024-01-25T00:51:20;20.37;;;2.47;;
18146;SDS011;9199;48.832;9.182;2024-01-25T00:53:48;19.50;;;2.90;;
18146;SDS011;9199;48.832;9.182;2024-01-25T00:56:15;16.08;;;2.20;;
18146;SDS011;9199;48.832;9.182;2024-01-25T00:58:44;19.85;;;3.10;;
18146;SDS011;9199;48.832;9.182;2024-01-25T01:01:11;19.80;;;2.85;;
18146;SDS011;9199;48.832;9.182;2024-01-25T01:03:38;19.50;;;2.60;;
18146;SDS011;9199;48.832;9.182;2024-01-25T01:06:06;23.75;;;2.78;;
18146;SDS011;9199;48.832;9.182;2024-01-25T01:08:33;20.58;;;2.63;;
18146;SDS011;9199;48.832;9.182;2024-01-25T01:11:01;20.25;;;3.05;;
18146;SDS011;9199;48.832;9.182;2024-01-25T01:13:27;24.33;;;2.78;;
18146;SDS011;9199;48.832;9.182;2024-01-25T01:15:55;24.17;;;2.73;;
18146;SDS011;9199;48.832;9.182;2024-01-25T01:18:22;15.20;;;2.25;;
18146;SDS011;9199;48.832;9.182;2024-01-25T01:20:49;18.33;;;2.55;;
18146;SDS011;9199;48.832;9.182;2024-01-25T01:23:15;17.55;;;2.28;;
18146;SDS011;9199;48.832;9.182;2024-01-25T01:25:42;19.88;;;2.67;;
18146;SDS011;9199;48.832;9.182;2024-01-25T01:28:09;17.53;;;2.37;;
18146;SDS011;9199;48.832;9.182;2024-01-25T01:30:36;17.10;;;2.30;;
18146;SDS011;9199;48.832;9.182;2024-01-25T01:33:07;20.33;;;2.83;;
18146;SDS011;9199;48.832;9.182;2024-01-25T01:35:34;17.23;;;2.83;;
18146;SDS011;9199;48.832;9.182;2024-01-25T01:38:01;22.77;;;3.05;;
18146;SDS011;9199;48.832;9.182;2024-01-25T01:40:28;14.53;;;2.20;;
18146;SDS011;9199;48.832;9.182;2024-01-25T01:42:58;22.17;;;2.42;;
18146;SDS011;9199;48.832;9.182;2024-01-25T01:45:25;17.42;;;2.75;;
18146;SDS011;9199;48.832;9.182;2024-01-25T01:47:52;16.00;;;2.60;;
18146;SDS011;9199;48.832;9.182;2024-01-25T01:50:20;19.67;;;2.42;;
18146;SDS011;9199;48.832;9.182;2024-01-25T01:52:47;18.07;;;2.37;;
18146;SDS011;9199;48.832;9.182;2024-01-25T01:55:15;16.42;;;2.30;;
18146;SDS011;9199;48.832;9.182;2024-01-25T01:57:42;18.52;;;2.20;;
18146;SDS011;9199;48.832;9.182;2024-01-25T02:00:10;15.40;;;2.20;;
18146;SDS011;9199;48.832;9.182;2024-01-25T02:02:37;18.83;;;2.20;;
18146;SDS011;9199;48.832;9.182;2024-01-25T02:05:04;12.57;;;1.90;;
18146;SDS011;9199;48.832;9.182;2024-01-25T02:07:33;18.25;;;2.40;;
18146;SDS011;9199;48.832;9.182;2024-01-25T02:10:00;18.23;;;2.30;;
18146;SDS011;9199;48.832;9.182;2024-01-25T02:12:27;12.45;;;1.77;;
18146;SDS011;9199;48.832;9.182;2024-01-25T02:14:53;15.95;;;2.10;;
18146;SDS011;9199;48.832;9.182;2024-01-25T02:17:20;12.47;;;2.27;;
18146;SDS011;9199;48.832;9.182;2024-01-25T02:19:47;16.98;;;2.10;;
18146;SDS011;9199;48.832;9.182;2024-01-25T02:22:16;18.65;;;3.38;;
18146;SDS011;9199;48.832;9.182;2024-01-25T02:24:44;15.85;;;2.50;;
18146;SDS011;9199;48.832;9.182;2024-01-25T02:27:11;13.82;;;2.40;;
18146;SDS011;9199;48.832;9.182;2024-01-25T02:29:38;16.90;;;2.37;;
18146;SDS011;9199;48.832;9.182;2024-01-25T02:32:05;16.42;;;2.47;;
18146;SDS011;9199;48.832;9.182;2024-01-25T02:34:32;20.50;;;2.92;;
18146;SDS011;9199;48.832;9.182;2024-01-25T02:36:59;15.77;;;2.13;;
18146;SDS011;9199;48.832;9.182;2024-01-25T02:39:27;16.77;;;2.50;;
18146;SDS011;9199;48.832;9.182;2024-01-25T02:41:53;22.10;;;3.40;;
18146;SDS011;9199;48.832;9.182;2024-01-25T02:44:20;14.13;;;2.05;;
18146;SDS011;9199;48.832;9.182;2024-01-25T02:46:47;18.25;;;2.30;;
18146;SDS011;9199;48.832;9.182;2024-01-25T02:49:13;15.10;;;2.40;;
18146;SDS011;9199;48.832;9.182;2024-01-25T02:51:40;14.45;;;2.17;;
18146;SDS011;9199;48.832;9.182;2024-01-25T02:54:07;18.60;;;2.30;;
18146;SDS011;9199;48.832;9.182;2024-01-25T02:56:35;20.48;;;2.50;;
18146;SDS011;9199;48.832;9.182;2024-01-25T02:59:02;16.05;;;2.28;;
18146;SDS011;9199;48.832;9.182;2024-01-25T03:01:36;18.15;;;2.13;;
18146;SDS011;9199;48.832;9.182;2024-01-25T03:04:03;15.70;;;2.35;;
18146;SDS011;9199;48.832;9.182;2024-01-25T03:06:30;13.73;;;2.13;;
18146;SDS011;9199;48.832;9.182;2024-01-25T03:08:57;18.15;;;2.55;;
18146;SDS011;9199;48.832;9.182;2024-01-25T03:11:23;21.42;;;2.28;;
18146;SDS011;9199;48.832;9.182;2024-01-25T03:13:51;17.77;;;2.65;;
18146;SDS011;9199;48.832;9.182;2024-01-25T03:16:18;17.77;;;1.95;;
18146;SDS011;9199;48.832;9.182;2024-01-25T03:18:45;16.93;;;2.60;;
18146;SDS011;9199;48.832;9.182;2024-01-25T03:21:11;20.02;;;2.50;;
18146;SDS011;9199;48.832;9.182;2024-01-25T03:23:38;15.60;;;2.00;;
18146;SDS011;9199;48.832;9.182;2024-01-25T03:26:05;16.83;;;2.00;;
18146;SDS011;9199;48.832;9.182;2024-01-25T03:28:32;14.57;;;2.17;;
18146;SDS011;9199;48.832;9.182;2024-01-25T03:31:01;17.53;;;1.97;;
18146;SDS011;9199;48.832;9.182;2024-01-25T03:33:28;14.45;;;2.60;;
18146;SDS011;9199;48.832;9.182;2024-01-25T03:35:54;19.38;;;2.22;;
18146;SDS011;9199;48.832;9.182;2024-01-25T03:38:21;13.30;;;2.40;;
18146;SDS011;9199;48.832;9.182;2024-01-25T03:40:48;17.23;;;2.30;;
18146;SDS011;9199;48.832;9.182;2024-01-25T03:43:16;15.23;;;2.93;;
18146;SDS011;9199;48.832;9.182;2024-01-25T03:45:42;18.98;;;2.50;;
18146;SDS011;9199;48.832;9.182;2024-01-25T03:48:10;17.83;;;2.35;;
18146;SDS011;9199;48.832;9.182;2024-01-25T03:50:37;15.02;;;2.40;;
18146;SDS011;9199;48.832;9.182;2024-01-25T03:53:04;12.25;;;1.98;;
18146;SDS011;9199;48.832;9.182;2024-01-25T03:55:31;18.00;;;2.53;;
18146;SDS011;9199;48.832;9.182;2024-01-25T03:57:58;20.60;;;2.80;;
18146;SDS011;9199;48.832;9.182;2024-01-25T04:00:24;21.10;;;2.70;;
18146;SDS011;9199;48.832;9.182;2024-01-25T04:02:51;17.73;;;2.40;;
18146;SDS011;9199;48.832;9.182;2024-01-25T04:05:19;19.60;;;2.55;;
18146;SDS011;9199;48.832;9.182;2024-01-25T04:07:46;16.97;;;2.90;;
18146;SDS011;9199;48.832;9.182;2024-01-25T04:10:12;13.38;;;2.05;;
18146;SDS011;9199;48.832;9.182;2024-01-25T04:12:39;17.70;;;2.30;;
18146;SDS011;9199;48.832;9.182;2024-01-25T04:15:06;18.27;;;2.33;;
18146;SDS011;9199;48.832;9.182;2024-01-25T04:17:34;15.90;;;2.20;;
18146;SDS011;9199;48.832;9.182;2024-01-25T04:20:01;22.17;;;2.77;;
18146;SDS011;9199;48.832;9.182;2024-01-25T04:22:29;20.55;;;2.90;;
18146;SDS011;9199;48.832;9.182;2024-01-25T04:24:56;29.30;;;4.38;;
18146;SDS011;9199;48.832;9.182;2024-01-25T04:27:22;11.20;;;1.92;;
18146;SDS011;9199;48.832;9.182;2024-01-25T04:29:49;17.45;;;2.70;;
18146;SDS011;9199;48.832;9.182;2024-01-25T04:32:16;14.97;;;2.10;;
18146;SDS011;9199;48.832;9.182;2024-01-25T04:34:43;20.33;;;2.53;;
18146;SDS011;9199;48.832;9.182;2024-01-25T04:37:11;16.58;;;2.05;;
18146;SDS011;9199;48.832;9.182;2024-01-25T04:39:39;13.20;;;2.25;;
18146;SDS011;9199;48.832;9.182;2024-01-25T04:42:05;20.85;;;2.25;;
18146;SDS011;9199;48.832;9.182;2024-01-25T04:44:32;15.20;;;2.43;;
18146;SDS011;9199;48.832;9.182;2024-01-25T04:46:59;20.88;;;2.15;;
18146;SDS011;9199;48.832;9.182;2024-01-25T04:49:26;14.32;;;2.47;;
18146;SDS011;9199;48.832;9.182;2024-01-25T04:51:52;18.48;;;2.67;;
18146;SDS011;9199;48.832;9.182;2024-01-25T04:54:19;16.00;;;2.17;;
18146;SDS011;9199;48.832;9.182;2024-01-25T04:56:48;15.37;;;2.07;;
18146;SDS011;9199;48.832;9.182;2024-01-25T04:59:15;19.67;;;2.58;;
18146;SDS011;9199;48.832;9.182;2024-01-25T05:01:41;15.10;;;2.50;;
18146;SDS011;9199;48.832;9.182;2024-01-25T05:04:08;16.02;;;2.15;;
18146;SDS011;9199;48.832;9.182;2024-01-25T05:06:35;15.15;;;2.40;;
18146;SDS011;9199;48.832;9.182;2024-01-25T05:09:02;18.60;;;2.60;;
18146;SDS011;9199;48.832;9.182;2024-01-25T05:11:29;16.08;;;2.38;;
18146;SDS011;9199;48.832;9.182;2024-01-25T05:13:57;16.38;;;1.90;;
18146;SDS011;9199;48.832;9.182;2024-01-25T05:16:23;15.23;;;2.20;;
18146;SDS011;9199;48.832;9.182;2024-01-25T05:18:50;16.40;;;2.30;;
18146;SDS011;9199;48.832;9.182;2024-01-25T05:21:17;15.30;;;2.40;;
18146;SDS011;9199;48.832;9.182;2024-01-25T05:23:43;15.95;;;2.00;;
18146;SDS011;9199;48.832;9.182;2024-01-25T05:26:10;16.98;;;2.15;;
18146;SDS011;9199;48.832;9.182;2024-01-25T05:28:37;17.45;;;2.50;;
18146;SDS011;9199;48.832;9.182;2024-01-25T05:31:05;15.48;;;3.40;;
18146;SDS011;9199;48.832;9.182;2024-01-25T05:33:37;21.37;;;2.43;;
18146;SDS011;9199;48.832;9.182;2024-01-25T05:36:04;14.73;;;2.35;;
18146;SDS011;9199;48.832;9.182;2024-01-25T05:38:31;14.43;;;2.28;;
18146;SDS011;9199;48.832;9.182;2024-01-25T05:40:58;14.57;;;2.53;;
18146;SDS011;9199;48.832;9.182;2024-01-25T05:43:25;15.98;;;2.42;;
18146;SDS011;9199;48.832;9.182;2024-01-25T05:45:52;16.77;;;2.83;;
18146;SDS011;9199;48.832;9.182;2024-01-25T05:48:20;15.00;;;2.58;;
18146;SDS011;9199;48.832;9.182;2024-01-25T05:50:47;10.45;;;1.95;;
18146;SDS011;9199;48.832;9.182;2024-01-25T05:53:14;16.90;;;2.50;;
18146;SDS011;9199;48.832;9.182;2024-01-25T05:55:41;16.60;;;2.10;;
18146;SDS011;9199;48.832;9.182;2024-01-25T05:58:08;14.60;;;2.20;;
18146;SDS011;9199;48.832;9.182;2024-01-25T06:00:35;16.65;;;2.17;;
18146;SDS011;9199;48.832;9.182;2024-01-25T06:03:01;23.23;;;2.45;;
18146;SDS011;9199;48.832;9.182;2024-01-25T06:05:29;19.25;;;2.55;;
18146;SDS011;9199;48.832;9.182;2024-01-25T06:07:56;13.38;;;2.28;;
18146;SDS011;9199;48.832;9.182;2024-01-25T06:10:23;20.63;;;2.63;;
18146;SDS011;9199;48.832;9.182;2024-01-25T06:12:49;18.73;;;2.65;;
18146;SDS011;9199;48.832;9.182;2024-01-25T06:15:16;18.10;;;2.35;;
18146;SDS011;9199;48.832;9.182;2024-01-25T06:17:43;13.10;;;2.05;;
18146;SDS011;9199;48.832;9.182;2024-01-25T06:20:10;14.80;;;2.20;;
18146;SDS011;9199;48.832;9.182;2024-01-25T06:22:38;11.67;;;1.97;;
18146;SDS011;9199;48.832;9.182;2024-01-25T06:25:05;19.48;;;3.05;;
18146;SDS011;9199;48.832;9.182;2024-01-25T06:27:31;17.10;;;2.63;;
18146;SDS011;9199;48.832;9.182;2024-01-25T06:29:57;17.95;;;3.45;;
18146;SDS011;9199;48.832;9.182;2024-01-25T06:32:24;19.60;;;2.70;;
18146;SDS011;9199;48.832;9.182;2024-01-25T06:34:51;17.07;;;2.77;;
18146;SDS011;9199;48.832;9.182;2024-01-25T06:37:18;20.63;;;2.60;;
18146;SDS011;9199;48.832;9.182;2024-01-25T06:39:46;18.48;;;2.85;;
18146;SDS011;9199;48.832;9.182;2024-01-25T06:42:13;18.60;;;2.70;;
18146;SDS011;9199;48.832;9.182;2024-01-25T06:44:40;19.90;;;2.70;;
18146;SDS011;9199;48.832;9.182;2024-01-25T06:47:07;22.97;;;3.83;;
18146;SDS011;9199;48.832;9.182;2024-01-25T06:49:34;20.55;;;3.30;;
18146;SDS011;9199;48.832;9.182;2024-01-25T06:52:00;16.67;;;2.95;;
18146;SDS011;9199;48.832;9.182;2024-01-25T06:54:27;25.77;;;3.05;;
18146;SDS011;9199;48.832;9.182;2024-01-25T06:56:55;17.48;;;3.38;;
18146;SDS011;9199;48.832;9.182;2024-01-25T06:59:22;18.07;;;2.97;;
18146;SDS011;9199;48.832;9.182;2024-01-25T07:01:49;21.27;;;3.22;;
18146;SDS011;9199;48.832;9.182;2024-01-25T07:04:16;20.90;;;3.70;;
18146;SDS011;9199;48.832;9.182;2024-01-25T07:06:43;15.93;;;2.67;;
18146;SDS011;9199;48.832;9.182;2024-01-25T07:09:10;20.23;;;3.13;;
18146;SDS011;9199;48.832;9.182;2024-01-25T07:11:37;19.73;;;2.83;;
18146;SDS011;9199;48.832;9.182;2024-01-25T07:14:05;14.13;;;2.70;;
18146;SDS011;9199;48.832;9.182;2024-01-25T07:16:32;18.30;;;2.63;;
18146;SDS011;9199;48.832;9.182;2024-01-25T07:18:58;19.20;;;2.65;;
18146;SDS011;9199;48.832;9.182;2024-01-25T07:21:25;26.63;;;3.22;;
18146;SDS011;9199;48.832;9.182;2024-01-25T07:23:52;21.23;;;3.00;;
18146;SDS011;9199;48.832;9.182;2024-01-25T07:26:18;20.63;;;2.92;;
18146;SDS011;9199;48.832;9.182;2024-01-25T07:28:46;20.05;;;2.85;;
18146;SDS011;9199;48.832;9.182;2024-01-25T07:31:15;16.33;;;2.80;;
18146;SDS011;9199;48.832;9.182;2024-01-25T07:33:42;23.02;;;3.10;;
18146;SDS011;9199;48.832;9.182;2024-01-25T07:36:08;16.47;;;2.70;;
18146;SDS011;9199;48.832;9.182;2024-01-25T07:38:35;17.38;;;3.45;;
18146;SDS011;9199;48.832;9.182;2024-01-25T07:41:02;25.88;;;4.00;;
18146;SDS011;9199;48.832;9.182;2024-01-25T07:43:29;17.83;;;2.78;;
18146;SDS011;9199;48.832;9.182;2024-01-25T07:45:55;18.63;;;3.38;;
18146;SDS011;9199;48.832;9.182;2024-01-25T07:48:23;17.83;;;2.83;;
18146;SDS011;9199;48.832;9.182;2024-01-25T07:50:50;17.35;;;2.53;;
18146;SDS011;9199;48.832;9.182;2024-01-25T07:53:17;18.90;;;3.00;;
18146;SDS011;9199;48.832;9.182;2024-01-25T07:55:43;19.83;;;3.75;;
18146;SDS011;9199;48.832;9.182;2024-01-25T07:58:10;22.55;;;3.95;;
18146;SDS011;9199;48.832;9.182;2024-01-25T08:00:37;17.47;;;3.33;;
18146;SDS011;9199;48.832;9.182;2024-01-25T08:03:04;21.67;;;3.42;;
18146;SDS011;9199;48.832;9.182;2024-01-25T08:05:32;24.17;;;4.00;;
18146;SDS011;9199;48.832;9.182;2024-01-25T08:07:59;21.17;;;2.95;;
18146;SDS011;9199;48.832;9.182;2024-01-25T08:10:26;21.20;;;3.22;;
18146;SDS011;9199;48.832;9.182;2024-01-25T08:12:52;25.70;;;3.43;;
18146;SDS011;9199;48.832;9.182;2024-01-25T08:15:19;21.65;;;3.42;;
18146;SDS011;9199;48.832;9.182;2024-01-25T08:17:45;19.45;;;3.08;;
18146;SDS011;9199;48.832;9.182;2024-01-25T08:20:12;20.00;;;3.97;;
18146;SDS011;9199;48.832;9.182;2024-01-25T08:22:41;20.95;;;3.33;;
18146;SDS011;9199;48.832;9.182;2024-01-25T08:25:08;20.13;;;2.57;;
18146;SDS011;9199;48.832;9.182;2024-01-25T08:27:35;18.25;;;3.60;;
18146;SDS011;9199;48.832;9.182;2024-01-25T08:30:02;17.15;;;2.88;;
18146;SDS011;9199;48.832;9.182;2024-01-25T08:32:29;19.23;;;3.10;;
18146;SDS011;9199;48.832;9.182;2024-01-25T08:34:56;17.70;;;2.63;;
18146;SDS011;9199;48.832;9.182;2024-01-25T08:37:22;15.80;;;2.83;;
18146;SDS011;9199;48.832;9.182;2024-01-25T08:39:50;19.50;;;3.15;;
18146;SDS011;9199;48.832;9.182;2024-01-25T08:42:17;20.42;;;3.35;;
18146;SDS011;9199;48.832;9.182;2024-01-25T08:44:45;17.73;;;2.70;;
18146;SDS011;9199;48.832;9.182;2024-01-25T08:47:14;12.23;;;2.55;;
18146;SDS011;9199;48.832;9.182;2024-01-25T08:49:41;13.57;;;2.60;;
18146;SDS011;9199;48.832;9.182;2024-01-25T08:52:08;15.25;;;2.60;;
18146;SDS011;9199;48.832;9.182;2024-01-25T08:54:35;17.50;;;2.80;;
18146;SDS011;9199;48.832;9.182;2024-01-25T08:57:04;15.43;;;2.70;;
18146;SDS011;9199;48.832;9.182;2024-01-25T08:59:31;14.63;;;2.33;;
18146;SDS011;9199;48.832;9.182;2024-01-25T09:02:00;16.53;;;2.70;;
18146;SDS011;9199;48.832;9.182;2024-01-25T09:04:26;14.88;;;2.33;;
18146;SDS011;9199;48.832;9.182;2024-01-25T09:06:53;15.88;;;2.50;;
18146;SDS011;9199;48.832;9.182;2024-01-25T09:09:20;13.30;;;2.47;;
18146;SDS011;9199;48.832;9.182;2024-01-25T09:11:46;19.10;;;2.55;;
18146;SDS011;9199;48.832;9.182;2024-01-25T09:14:15;13.90;;;2.30;;
18146;SDS011;9199;48.832;9.182;2024-01-25T09:16:41;13.85;;;2.20;;
18146;SDS011;9199;48.832;9.182;2024-01-25T09:19:08;16.08;;;2.60;;
18146;SDS011;9199;48.832;9.182;2024-01-25T09:21:37;18.08;;;2.58;;
18146;SDS011;9199;48.832;9.182;2024-01-25T09:24:05;21.42;;;3.95;;
18146;SDS011;9199;48.832;9.182;2024-01-25T09:26:32;11.43;;;2.20;;
18146;SDS011;9199;48.832;9.182;2024-01-25T09:28:58;15.20;;;2.80;;
18146;SDS011;9199;48.832;9.182;2024-01-25T09:31:26;14.82;;;3.00;;
18146;SDS011;9199;48.832;9.182;2024-01-25T09:33:53;17.17;;;2.50;;
18146;SDS011;9199;48.832;9.182;2024-01-25T09:36:20;13.85;;;2.15;;
18146;SDS011;9199;48.832;9.182;2024-01-25T09:38:47;12.40;;;2.30;;
18146;SDS011;9199;48.832;9.182;2024-01-25T09:41:13;16.30;;;2.53;;
18146;SDS011;9199;48.832;9.182;2024-01-25T09:43:40;15.82;;;2.72;;
18146;SDS011;9199;48.832;9.182;2024-01-25T09:46:08;19.65;;;2.60;;
18146;SDS011;9199;48.832;9.182;2024-01-25T09:48:40;16.88;;;2.42;;
18146;SDS011;9199;48.832;9.182;2024-01-25T09:51:09;17.00;;;2.90;;
18146;SDS011;9199;48.832;9.182;2024-01-25T09:53:37;15.35;;;2.60;;
18146;SDS011;9199;48.832;9.182;2024-01-25T09:56:05;18.73;;;2.30;;
18146;SDS011;9199;48.832;9.182;2024-01-25T09:58:36;17.08;;;2.63;;
18146;SDS011;9199;48.832;9.182;2024-01-25T10:01:04;21.02;;;2.67;;
18146;SDS011;9199;48.832;9.182;2024-01-25T10:03:34;16.20;;;2.53;;
18146;SDS011;9199;48.832;9.182;2024-01-25T10:06:02;19.50;;;2.42;;
18146;SDS011;9199;48.832;9.182;2024-01-25T10:08:29;16.08;;;2.33;;
18146;SDS011;9199;48.832;9.182;2024-01-25T10:10:56;16.83;;;2.55;;
18146;SDS011;9199;48.832;9.182;2024-01-25T10:13:22;14.30;;;2.50;;
18146;SDS011;9199;48.832;9.182;2024-01-25T10:15:49;20.20;;;2.47;;
18146;SDS011;9199;48.832;9.182;2024-01-25T10:18:16;13.02;;;2.28;;
18146;SDS011;9199;48.832;9.182;2024-01-25T10:20:43;14.13;;;2.25;;
18146;SDS011;9199;48.832;9.182;2024-01-25T10:23:11;16.83;;;2.50;;
18146;SDS011;9199;48.832;9.182;2024-01-25T10:25:37;17.75;;;2.55;;
18146;SDS011;9199;48.832;9.182;2024-01-25T10:28:05;21.17;;;2.87;;
18146;SDS011;9199;48.832;9.182;2024-01-25T10:30:33;15.10;;;2.33;;
18146;SDS011;9199;48.832;9.182;2024-01-25T10:33:01;13.43;;;2.35;;
18146;SDS011;9199;48.832;9.182;2024-01-25T10:35:29;16.70;;;2.40;;
18146;SDS011;9199;48.832;9.182;2024-01-25T10:37:57;16.20;;;2.30;;
18146;SDS011;9199;48.832;9.182;2024-01-25T10:40:26;19.87;;;2.93;;
18146;SDS011;9199;48.832;9.182;2024-01-25T10:42:54;14.68;;;2.63;;
18146;SDS011;9199;48.832;9.182;2024-01-25T10:45:20;15.75;;;2.20;;
18146;SDS011;9199;48.832;9.182;2024-01-25T10:47:48;19.92;;;3.28;;
18146;SDS011;9199;48.832;9.182;2024-01-25T10:50:15;15.93;;;2.42;;
18146;SDS011;9199;48.832;9.182;2024-01-25T10:52:42;15.90;;;2.50;;
18146;SDS011;9199;48.832;9.182;2024-01-25T10:55:10;16.52;;;2.80;;
18146;SDS011;9199;48.832;9.182;2024-01-25T10:57:41;14.52;;;2.42;;
18146;SDS011;9199;48.832;9.182;2024-01-25T11:00:10;13.18;;;2.40;;
18146;SDS011;9199;48.832;9.182;2024-01-25T11:02:38;10.70;;;2.53;;
18146;SDS011;9199;48.832;9.182;2024-01-25T11:05:06;11.73;;;2.10;;
18146;SDS011;9199;48.832;9.182;2024-01-25T11:07:42;14.07;;;2.60;;
18146;SDS011;9199;48.832;9.182;2024-01-25T11:10:11;17.67;;;2.25;;
18146;SDS011;9199;48.832;9.182;2024-01-25T11:12:51;15.85;;;3.03;;
18146;SDS011;9199;48.832;9.182;2024-01-25T11:15:22;13.70;;;2.40;;
18146;SDS011;9199;48.832;9.182;2024-01-25T11:17:53;14.77;;;2.40;;
18146;SDS011;9199;48.832;9.182;2024-01-25T11:20:20;14.52;;;2.58;;
18146;SDS011;9199;48.832;9.182;2024-01-25T11:22:48;14.00;;;2.40;;
18146;SDS011;9199;48.832;9.182;2024-01-25T11:25:20;10.07;;;1.92;;
18146;SDS011;9199;48.832;9.182;2024-01-25T11:27:47;13.65;;;2.20;;
18146;SDS011;9199;48.832;9.182;2024-01-25T11:30:18;9.37;;;1.83;;
18146;SDS011;9199;48.832;9.182;2024-01-25T11:32:45;11.30;;;1.60;;
18146;SDS011;9199;48.832;9.182;2024-01-25T11:35:13;12.90;;;2.03;;
18146;SDS011;9199;48.832;9.182;2024-01-25T11:37:41;11.55;;;1.98;;
18146;SDS011;9199;48.832;9.182;2024-01-25T11:40:09;13.43;;;1.88;;
18146;SDS011;9199;48.832;9.182;2024-01-25T11:42:37;14.73;;;2.00;;
18146;SDS011;9199;48.832;9.182;2024-01-25T11:45:04;12.20;;;2.15;;
18146;SDS011;9199;48.832;9.182;2024-01-25T11:47:35;12.00;;;2.05;;
18146;SDS011;9199;48.832;9.182;2024-01-25T11:50:01;14.23;;;2.15;;
18146;SDS011;9199;48.832;9.182;2024-01-25T11:52:28;10.93;;;1.90;;
18146;SDS011;9199;48.832;9.182;2024-01-25T11:54:57;11.87;;;2.00;;
18146;SDS011;9199;48.832;9.182;2024-01-25T11:57:24;12.52;;;1.90;;
18146;SDS011;9199;48.832;9.182;2024-01-25T11:59:51;12.73;;;2.25;;
18146;SDS011;9199;48.832;9.182;2024-01-25T12:02:18;14.13;;;2.40;;
18146;SDS011;9199;48.832;9.182;2024-01-25T12:04:47;11.55;;;1.88;;
18146;SDS011;9199;48.832;9.182;2024-01-25T12:07:14;13.60;;;1.83;;
18146;SDS011;9199;48.832;9.182;2024-01-25T12:09:41;13.80;;;2.10;;
18146;SDS011;9199;48.832;9.182;2024-01-25T12:12:08;15.60;;;2.35;;
18146;SDS011;9199;48.832;9.182;2024-01-25T12:14:35;11.25;;;2.00;;
18146;SDS011;9199;48.832;9.182;2024-01-25T12:17:03;12.52;;;1.92;;
18146;SDS011;9199;48.832;9.182;2024-01-25T12:19:30;13.27;;;1.87;;
18146;SDS011;9199;48.832;9.182;2024-01-25T12:21:57;12.77;;;2.10;;
18146;SDS011;9199;48.832;9.182;2024-01-25T12:24:24;11.40;;;1.83;;
18146;SDS011;9199;48.832;9.182;2024-01-25T12:26:51;10.73;;;1.90;;
18146;SDS011;9199;48.832;9.182;2024-01-25T12:29:17;10.57;;;1.98;;
18146;SDS011;9199;48.832;9.182;2024-01-25T12:31:44;9.60;;;1.77;;
18146;SDS011;9199;48.832;9.182;2024-01-25T12:34:12;9.85;;;1.70;;
18146;SDS011;9199;48.832;9.182;2024-01-25T12:36:40;9.75;;;1.80;;
18146;SDS011;9199;48.832;9.182;2024-01-25T12:39:09;11.57;;;2.10;;
18146;SDS011;9199;48.832;9.182;2024-01-25T12:41:39;11.68;;;2.10;;
18146;SDS011;9199;48.832;9.182;2024-01-25T12:44:05;9.73;;;1.80;;
18146;SDS011;9199;48.832;9.182;2024-01-25T12:46:32;11.00;;;1.90;;
18146;SDS011;9199;48.832;9.182;2024-01-25T12:48:59;9.25;;;1.67;;
18146;SDS011;9199;48.832;9.182;2024-01-25T12:51:26;13.05;;;1.95;;
18146;SDS011;9199;48.832;9.182;2024-01-25T12:53:52;9.00;;;1.60;;
18146;SDS011;9199;48.832;9.182;2024-01-25T12:56:20;11.03;;;1.80;;
18146;SDS011;9199;48.832;9.182;2024-01-25T12:58:47;11.35;;;1.75;;
18146;SDS011;9199;48.832;9.182;2024-01-25T13:01:14;10.45;;;1.77;;
18146;SDS011;9199;48.832;9.182;2024-01-25T13:03:41;10.18;;;1.85;;
18146;SDS011;9199;48.832;9.182;2024-01-25T13:06:07;11.15;;;2.00;;
18146;SDS011;9199;48.832;9.182;2024-01-25T13:08:34;10.10;;;1.90;;
18146;SDS011;9199;48.832;9.182;2024-01-25T13:11:01;9.73;;;1.90;;
18146;SDS011;9199;48.832;9.182;2024-01-25T13:13:29;10.07;;;1.67;;
18146;SDS011;9199;48.832;9.182;2024-01-25T13:15:55;9.70;;;1.63;;
18146;SDS011;9199;48.832;9.182;2024-01-25T13:18:22;12.82;;;2.22;;
18146;SDS011;9199;48.832;9.182;2024-01-25T13:20:48;6.43;;;1.50;;
18146;SDS011;9199;48.832;9.182;2024-01-25T13:23:15;7.45;;;1.48;;
18146;SDS011;9199;48.832;9.182;2024-01-25T13:25:42;9.52;;;1.98;;
18146;SDS011;9199;48.832;9.182;2024-01-25T13:28:08;9.48;;;1.70;;
18146;SDS011;9199;48.832;9.182;2024-01-25T13:30:36;12.18;;;1.75;;
18146;SDS011;9199;48.832;9.182;2024-01-25T13:33:03;9.10;;;1.73;;
18146;SDS011;9199;48.832;9.182;2024-01-25T13:35:30;9.75;;;1.60;;
18146;SDS011;9199;48.832;9.182;2024-01-25T13:37:57;10.15;;;1.80;;
18146;SDS011;9199;48.832;9.182;2024-01-25T13:40:26;16.92;;;3.35;;
18146;SDS011;9199;48.832;9.182;2024-01-25T13:42:53;10.23;;;1.90;;
18146;SDS011;9199;48.832;9.182;2024-01-25T13:45:20;9.37;;;1.47;;
18146;SDS011;9199;48.832;9.182;2024-01-25T13:47:48;10.20;;;1.67;;
18146;SDS011;9199;48.832;9.182;2024-01-25T13:50:15;9.65;;;1.58;;
18146;SDS011;9199;48.832;9.182;2024-01-25T13:52:42;8.82;;;1.60;;
18146;SDS011;9199;48.832;9.182;2024-01-25T13:55:08;9.55;;;1.63;;
18146;SDS011;9199;48.832;9.182;2024-01-25T13:57:35;10.73;;;1.70;;
18146;SDS011;9199;48.832;9.182;2024-01-25T14:00:02;10.60;;;1.67;;
18146;SDS011;9199;48.832;9.182;2024-01-25T14:02:30;10.27;;;2.00;;
18146;SDS011;9199;48.832;9.182;2024-01-25T14:04:59;10.52;;;1.50;;
18146;SDS011;9199;48.832;9.182;2024-01-25T14:07:25;6.88;;;1.38;;
18146;SDS011;9199;48.832;9.182;2024-01-25T14:09:52;8.40;;;1.57;;
18146;SDS011;9199;48.832;9.182;2024-01-25T14:12:19;9.50;;;1.30;;
18146;SDS011;9199;48.832;9.182;2024-01-25T14:14:46;10.18;;;1.83;;
18146;SDS011;9199;48.832;9.182;2024-01-25T14:17:12;11.48;;;1.85;;
18146;SDS011;9199;48.832;9.182;2024-01-25T14:19:39;11.00;;;1.55;;
18146;SDS011;9199;48.832;9.182;2024-01-25T14:22:07;8.80;;;1.60;;
18146;SDS011;9199;48.832;9.182;2024-01-25T14:24:34;10.52;;;1.77;;
18146;SDS011;9199;48.832;9.182;2024-01-25T14:27:00;10.27;;;1.60;;
18146;SDS011;9199;48.832;9.182;2024-01-25T14:29:27;11.68;;;1.65;;
18146;SDS011;9199;48.832;9.182;2024-01-25T14:31:57;12.48;;;1.85;;
18146;SDS011;9199;48.832;9.182;2024-01-25T14:34:24;11.50;;;2.00;;
18146;SDS011;9199;48.832;9.182;2024-01-25T14:36:50;9.38;;;1.65;;
18146;SDS011;9199;48.832;9.182;2024-01-25T14:39:19;12.20;;;1.70;;
18146;SDS011;9199;48.832;9.182;2024-01-25T14:41:46;12.10;;;1.55;;
18146;SDS011;9199;48.832;9.182;2024-01-25T14:44:13;12.75;;;2.22;;
18146;SDS011;9199;48.832;9.182;2024-01-25T14:46:40;13.50;;;1.80;;
18146;SDS011;9199;48.832;9.182;2024-01-25T14:49:06;10.38;;;1.50;;